Time;durP1;ratioP1;P1;durP2;ratioP2;P2;SDS_P1;SDS_P2;PMS_P1;PMS_P2;Temp;Humidity;BMP_temperature;BMP_pressure;BME280_temperature;BME280_humidity;BME280_pressure;Samples;Min_cycle;Max_cycle;Signal;HPM_P1;HPM_P2
2022/09/14 00:01:16;;;;;;;1.33;1.30;;;18.60;99.90;;;;;;6219027;23;19998;-84
2022/09/14 00:03:42;;;;;;;1.90;1.63;;;18.60;99.90;;;;;;6220186;23;20368;-88
2022/09/14 00:06:11;;;;;;;2.47;1.70;;;18.60;99.90;;;;;;6219912;23;20080;-85
2022/09/14 00:08:38;;;;;;;2.40;1.73;;;18.60;99.90;;;;;;6221076;23;19997;-85
2022/09/14 00:11:10;;;;;;;2.10;1.70;;;18.70;99.90;;;;;;6225201;23;20004;-84
2022/09/14 00:13:37;;;;;;;1.77;1.60;;;18.60;99.90;;;;;;6220207;23;20016;-83
2022/09/14 00:16:10;;;;;;;1.40;1.30;;;18.60;99.90;;;;;;6221415;23;19993;-83
2022/09/14 00:18:36;;;;;;;2.28;1.90;;;18.60;99.90;;;;;;6195913;23;20012;-83
2022/09/14 00:21:05;;;;;;;3.10;2.38;;;18.60;99.90;;;;;;6224682;23;20031;-84
2022/09/14 00:23:31;;;;;;;2.88;2.30;;;18.60;99.90;;;;;;6197918;23;20012;-85
2022/09/14 00:26:08;;;;;;;3.13;2.25;;;18.60;99.90;;;;;;6222936;23;19997;-86
2022/09/14 00:28:44;;;;;;;2.50;2.30;;;18.50;99.90;;;;;;6221000;23;19997;-85
2022/09/14 00:31:10;;;;;;;2.15;1.95;;;18.50;99.90;;;;;;6195066;23;20482;-85
2022/09/14 00:33:37;;;;;;;2.45;2.25;;;18.50;99.90;;;;;;6219156;22;20011;-84
2022/09/14 00:36:16;;;;;;;2.25;1.75;;;18.60;99.90;;;;;;6220034;23;20004;-85
2022/09/14 00:38:42;;;;;;;2.35;1.80;;;18.60;99.90;;;;;;6193827;23;20343;-85
2022/09/14 00:41:12;;;;;;;2.55;1.90;;;18.60;99.90;;;;;;6220953;23;20005;-85
2022/09/14 00:43:57;;;;;;;1.60;1.50;;;18.60;99.90;;;;;;6220730;23;20001;-84
2022/09/14 00:46:24;;;;;;;3.13;2.03;;;18.50;99.90;;;;;;6219984;23;20001;-84
2022/09/14 00:48:51;;;;;;;1.67;1.50;;;18.50;99.90;;;;;;6241346;22;19988;-87
2022/09/14 00:51:19;;;;;;;1.83;1.73;;;18.60;99.90;;;;;;6202761;23;20013;-85
2022/09/14 00:53:45;;;;;;;2.40;2.08;;;18.60;99.90;;;;;;6219711;23;20007;-84
2022/09/14 00:56:11;;;;;;;2.95;1.70;;;18.60;99.90;;;;;;6193346;23;20009;-84
2022/09/14 00:58:37;;;;;;;2.05;1.85;;;18.60;99.90;;;;;;6220468;23;20316;-85
2022/09/14 01:01:03;;;;;;;1.85;1.75;;;18.60;99.90;;;;;;6222876;22;20009;-83
2022/09/14 01:03:29;;;;;;;1.90;1.80;;;18.60;99.90;;;;;;6197535;23;20107;-84
2022/09/14 01:06:42;;;;;;;2.50;1.83;;;18.60;99.90;;;;;;6198154;23;20004;-84
2022/09/14 01:09:16;;;;;;;2.30;1.58;;;18.60;99.90;;;;;;6184337;23;20036;-84
2022/09/14 01:11:47;;;;;;;1.90;1.80;;;18.60;99.90;;;;;;6222010;23;20005;-84
2022/09/14 01:14:49;;;;;;;1.70;1.60;;;18.60;99.90;;;;;;6201975;23;19993;-84
2022/09/14 01:17:23;;;;;;;2.17;1.90;;;18.60;99.90;;;;;;6229391;23;20084;-84
2022/09/14 01:20:16;;;;;;;1.85;1.75;;;18.60;99.90;;;;;;6228926;22;20008;-86
2022/09/14 01:23:02;;;;;;;2.17;1.95;;;18.50;99.90;;;;;;6199267;23;20087;-84
2022/09/14 01:25:34;;;;;;;2.05;1.90;;;18.50;99.90;;;;;;6225234;23;20000;-84
2022/09/14 01:28:09;;;;;;;1.85;1.70;;;18.40;99.90;;;;;;6225224;23;20007;-84
2022/09/14 01:30:37;;;;;;;2.03;1.92;;;18.40;99.90;;;;;;6197627;23;20011;-85
2022/09/14 01:33:32;;;;;;;1.83;1.73;;;18.40;99.90;;;;;;6222932;22;20005;-85
2022/09/14 01:36:01;;;;;;;1.90;1.80;;;18.40;99.90;;;;;;6195255;23;20009;-85
2022/09/14 01:38:39;;;;;;;2.25;1.55;;;18.40;99.90;;;;;;6221910;23;20023;-84
2022/09/14 01:41:11;;;;;;;1.75;1.65;;;18.40;99.90;;;;;;6196247;23;20027;-84
2022/09/14 01:43:50;;;;;;;4.47;1.70;;;18.40;99.90;;;;;;6204655;23;20004;-85
2022/09/14 01:46:20;;;;;;;1.63;1.52;;;18.40;99.90;;;;;;6234832;23;20001;-84
2022/09/14 01:49:29;;;;;;;1.83;1.70;;;18.40;99.90;;;;;;6226076;22;19992;-86
2022/09/14 01:52:04;;;;;;;2.30;1.90;;;18.40;99.90;;;;;;6244036;22;20008;-87
2022/09/14 01:54:36;;;;;;;1.90;1.80;;;18.40;99.90;;;;;;6210817;23;20103;-85
2022/09/14 01:57:43;;;;;;;2.10;1.88;;;18.40;99.90;;;;;;6219927;23;20015;-86
2022/09/14 02:00:19;;;;;;;1.92;1.73;;;18.40;99.90;;;;;;6195055;23;20001;-85
2022/09/14 02:02:57;;;;;;;1.60;1.50;;;18.40;99.90;;;;;;6194419;23;20008;-84
2022/09/14 02:05:29;;;;;;;1.60;1.50;;;18.40;99.90;;;;;;6194782;23;20072;-85
2022/09/14 02:08:01;;;;;;;1.60;1.50;;;18.40;99.90;;;;;;6205435;23;20005;-84
2022/09/14 02:10:28;;;;;;;1.48;1.38;;;18.40;99.90;;;;;;6214916;23;20009;-77
2022/09/14 02:12:54;;;;;;;2.13;1.92;;;18.40;99.90;;;;;;6212965;23;19997;-79
2022/09/14 02:15:21;;;;;;;1.80;1.60;;;18.40;99.90;;;;;;6212746;23;19989;-79
2022/09/14 02:17:47;;;;;;;1.45;1.35;;;18.40;99.90;;;;;;6234622;22;20230;-79
2022/09/14 02:20:21;;;;;;;1.40;1.30;;;18.40;99.90;;;;;;6212767;23;20033;-79
2022/09/14 02:22:48;;;;;;;1.48;1.38;;;18.40;99.90;;;;;;6213138;23;20005;-78
2022/09/14 02:25:14;;;;;;;2.63;1.83;;;18.40;99.90;;;;;;6213108;23;19997;-78
2022/09/14 02:27:40;;;;;;;1.58;1.48;;;18.40;99.90;;;;;;6213035;23;20004;-79
2022/09/14 02:30:06;;;;;;;3.90;1.80;;;18.40;99.90;;;;;;6236811;22;20012;-78
2022/09/14 02:32:38;;;;;;;1.92;1.73;;;18.40;99.90;;;;;;6212877;23;20024;-79
2022/09/14 02:35:25;;;;;;;2.00;1.60;;;18.40;99.90;;;;;;6213013;23;20032;-80
2022/09/14 02:38:00;;;;;;;1.40;1.30;;;18.40;99.90;;;;;;6212030;23;19997;-79
2022/09/14 02:40:45;;;;;;;1.70;1.60;;;18.30;99.90;;;;;;6212967;23;19989;-78
2022/09/14 02:43:32;;;;;;;1.80;1.70;;;18.30;99.90;;;;;;6212826;23;20020;-79
2022/09/14 02:46:13;;;;;;;2.00;1.75;;;18.30;99.90;;;;;;6213060;23;20009;-79
2022/09/14 02:48:50;;;;;;;1.70;1.60;;;18.30;99.90;;;;;;6237433;22;20003;-79
2022/09/14 02:51:28;;;;;;;1.67;1.58;;;18.30;99.90;;;;;;6213295;23;19989;-79
2022/09/14 02:54:09;;;;;;;1.80;1.70;;;18.20;99.90;;;;;;6213451;23;20004;-78
2022/09/14 02:56:36;;;;;;;2.30;1.50;;;18.20;99.90;;;;;;6213482;23;19993;-78
2022/09/14 02:59:02;;;;;;;1.35;1.25;;;18.20;99.90;;;;;;6213441;23;20044;-78
2022/09/14 03:01:27;;;;;;;1.30;1.25;;;18.20;99.90;;;;;;6213644;23;19997;-79
2022/09/14 03:03:53;;;;;;;1.08;1.08;;;18.20;99.90;;;;;;6237695;22;20076;-78
2022/09/14 03:06:19;;;;;;;1.48;1.38;;;18.20;99.90;;;;;;6212675;23;19985;-79
2022/09/14 03:08:45;;;;;;;1.98;1.30;;;18.20;99.90;;;;;;6237271;22;20012;-79
2022/09/14 03:11:11;;;;;;;1.52;1.42;;;18.20;99.90;;;;;;6228116;22;20040;-77
2022/09/14 03:13:37;;;;;;;1.98;1.40;;;18.10;99.90;;;;;;6240091;22;19997;-77
2022/09/14 03:16:15;;;;;;;1.52;1.42;;;18.10;99.90;;;;;;6242648;22;19988;-78
2022/09/14 03:18:41;;;;;;;1.35;1.25;;;18.10;99.90;;;;;;6243118;22;19997;-77
2022/09/14 03:21:13;;;;;;;1.85;1.58;;;18.10;99.90;;;;;;6216491;23;20016;-78
2022/09/14 03:23:43;;;;;;;1.85;1.30;;;18.10;99.90;;;;;;6242538;22;19992;-78
2022/09/14 03:26:11;;;;;;;1.65;1.55;;;18.10;99.90;;;;;;6216403;22;19999;-78
2022/09/14 03:28:36;;;;;;;1.77;1.40;;;18.10;99.90;;;;;;6216371;22;20000;-78
2022/09/14 03:31:08;;;;;;;2.28;1.70;;;18.10;99.90;;;;;;6242327;22;19996;-77
2022/09/14 03:33:34;;;;;;;1.67;1.50;;;18.10;99.90;;;;;;6242732;22;20013;-78
2022/09/14 03:36:07;;;;;;;1.55;1.45;;;18.10;99.90;;;;;;6242470;22;20012;-77
2022/09/14 03:38:33;;;;;;;1.17;1.08;;;18.10;99.90;;;;;;6242371;22;20092;-77
2022/09/14 03:40:58;;;;;;;1.67;1.27;;;18.10;99.90;;;;;;6241267;22;20008;-79
2022/09/14 03:43:25;;;;;;;1.27;1.15;;;18.10;99.90;;;;;;6240208;23;20052;-78
2022/09/14 03:45:51;;;;;;;1.15;1.10;;;18.10;99.90;;;;;;6214052;23;20000;-78
2022/09/14 03:48:17;;;;;;;1.63;1.38;;;18.10;99.90;;;;;;6241000;23;19996;-79
2022/09/14 03:50:42;;;;;;;2.05;1.45;;;18.10;99.90;;;;;;6240375;23;20012;-79
2022/09/14 03:53:08;;;;;;;1.48;1.38;;;18.10;99.90;;;;;;6241807;22;20012;-78
2022/09/14 03:55:34;;;;;;;1.45;1.33;;;18.10;99.90;;;;;;6242221;22;20010;-79
2022/09/14 03:57:59;;;;;;;1.45;1.10;;;18.00;99.90;;;;;;6241802;22;20021;-78
2022/09/14 04:00:25;;;;;;;4.22;1.40;;;18.00;99.90;;;;;;6216164;23;20004;-78
2022/09/14 04:02:51;;;;;;;2.95;1.75;;;18.00;99.90;;;;;;6241596;22;20008;-79
2022/09/14 04:05:16;;;;;;;1.02;0.98;;;18.10;99.90;;;;;;6240905;23;20031;-79
2022/09/14 04:07:42;;;;;;;1.35;1.25;;;18.10;99.90;;;;;;6236855;23;20000;-80
2022/09/14 04:10:08;;;;;;;1.17;1.10;;;18.10;99.90;;;;;;6241250;22;19985;-78
2022/09/14 04:12:35;;;;;;;1.00;1.00;;;18.10;99.90;;;;;;6242027;22;20022;-78
2022/09/14 04:15:01;;;;;;;0.88;0.88;;;18.20;99.90;;;;;;6242181;23;20007;-78
2022/09/14 04:17:28;;;;;;;1.20;1.10;;;18.20;99.90;;;;;;6240921;22;20015;-80
2022/09/14 04:19:53;;;;;;;2.60;1.10;;;18.30;99.90;;;;;;6240608;23;19992;-79
2022/09/14 04:22:19;;;;;;;1.50;1.38;;;18.30;99.90;;;;;;6240996;23;19997;-81
2022/09/14 04:24:44;;;;;;;1.48;1.38;;;18.30;99.90;;;;;;6241362;23;19993;-80
2022/09/14 04:27:10;;;;;;;1.48;1.25;;;18.40;99.90;;;;;;6241335;22;20000;-79
2022/09/14 04:29:36;;;;;;;0.93;0.93;;;18.40;99.90;;;;;;6215559;23;20008;-81
2022/09/14 04:32:02;;;;;;;1.17;1.10;;;18.40;99.90;;;;;;6238997;22;20023;-79
2022/09/14 04:34:28;;;;;;;0.93;0.90;;;18.40;99.90;;;;;;6240397;23;19985;-82
2022/09/14 04:36:53;;;;;;;1.10;1.00;;;18.40;99.90;;;;;;6239720;22;20057;-80
2022/09/14 04:39:19;;;;;;;1.25;0.93;;;18.40;99.90;;;;;;6239845;23;19981;-80
2022/09/14 04:41:45;;;;;;;0.80;0.80;;;18.40;99.90;;;;;;6241979;22;19992;-79
2022/09/14 04:44:11;;;;;;;0.75;0.75;;;18.40;99.90;;;;;;6240099;22;20005;-79
2022/09/14 04:46:38;;;;;;;1.00;1.00;;;18.40;99.90;;;;;;6210530;23;20012;-79
2022/09/14 04:49:05;;;;;;;0.70;0.70;;;18.40;99.90;;;;;;6244697;22;20008;-80
2022/09/14 04:51:32;;;;;;;1.17;1.08;;;18.40;99.90;;;;;;6239564;22;20011;-79
2022/09/14 04:53:59;;;;;;;0.70;0.70;;;18.40;99.90;;;;;;6240958;23;19997;-79
2022/09/14 04:56:26;;;;;;;0.80;0.80;;;18.40;99.90;;;;;;6241929;22;19993;-79
2022/09/14 04:58:54;;;;;;;1.00;0.90;;;18.40;99.90;;;;;;6233458;23;20072;-79
2022/09/14 05:01:23;;;;;;;0.70;0.70;;;18.40;99.90;;;;;;6198352;23;20001;-79
2022/09/14 05:03:50;;;;;;;1.63;1.50;;;18.40;99.90;;;;;;6228785;23;20004;-80
2022/09/14 05:06:18;;;;;;;2.78;1.00;;;18.40;99.90;;;;;;6235675;23;20016;-80
2022/09/14 05:08:45;;;;;;;1.10;1.00;;;18.40;99.90;;;;;;6234400;23;20488;-79
2022/09/14 05:11:13;;;;;;;1.50;0.88;;;18.40;99.90;;;;;;6235906;23;19992;-80
2022/09/14 05:13:40;;;;;;;1.30;1.20;;;18.40;99.90;;;;;;6236298;23;20011;-79
2022/09/14 05:16:17;;;;;;;1.08;0.90;;;18.50;99.90;;;;;;6202083;23;20001;-80
2022/09/14 05:18:44;;;;;;;1.02;0.95;;;18.50;99.90;;;;;;6210158;23;20005;-80
2022/09/14 05:21:12;;;;;;;2.20;1.63;;;18.60;99.90;;;;;;6237670;23;20408;-80
2022/09/14 05:23:38;;;;;;;1.58;1.30;;;18.60;99.90;;;;;;6237541;23;20004;-79
2022/09/14 05:26:05;;;;;;;0.90;0.90;;;18.60;99.90;;;;;;6236624;23;19997;-79
2022/09/14 05:28:33;;;;;;;1.58;1.00;;;18.60;99.90;;;;;;6212279;23;20019;-79
2022/09/14 05:31:02;;;;;;;2.22;0.90;;;18.70;99.90;;;;;;6234551;23;20006;-80
2022/09/14 05:33:28;;;;;;;1.20;0.93;;;18.70;99.90;;;;;;6228640;23;20011;-80
2022/09/14 05:36:03;;;;;;;1.35;0.90;;;18.70;99.90;;;;;;6235679;23;20018;-80
2022/09/14 05:38:30;;;;;;;2.08;0.90;;;18.80;99.90;;;;;;6237101;23;20024;-81
2022/09/14 05:40:55;;;;;;;1.13;1.02;;;18.80;99.90;;;;;;6234423;23;20015;-79
2022/09/14 05:43:21;;;;;;;1.75;1.30;;;18.90;99.90;;;;;;6226407;23;20020;-80
2022/09/14 05:45:48;;;;;;;1.15;1.05;;;18.90;99.90;;;;;;6230979;23;20001;-80
2022/09/14 05:48:14;;;;;;;1.08;1.00;;;19.00;99.90;;;;;;6211638;23;20028;-80
2022/09/14 05:50:39;;;;;;;1.30;1.20;;;19.00;99.90;;;;;;6237448;23;20012;-80
2022/09/14 05:53:05;;;;;;;1.63;1.25;;;19.00;99.90;;;;;;6229490;22;20004;-80
2022/09/14 05:55:30;;;;;;;1.63;1.13;;;19.20;99.90;;;;;;6231306;23;20082;-81
2022/09/14 05:57:56;;;;;;;1.20;1.10;;;19.20;99.90;;;;;;6228235;23;20005;-81
2022/09/14 06:00:22;;;;;;;2.15;1.20;;;19.30;99.70;;;;;;6228417;23;19996;-80
2022/09/14 06:02:49;;;;;;;1.13;0.90;;;19.40;99.50;;;;;;6231332;22;20013;-80
2022/09/14 06:05:15;;;;;;;3.10;1.25;;;19.50;99.30;;;;;;6228129;22;20020;-80
2022/09/14 06:07:42;;;;;;;1.88;1.33;;;19.50;99.00;;;;;;6223395;23;20024;-80
2022/09/14 06:10:08;;;;;;;1.67;1.33;;;19.50;99.00;;;;;;6197159;23;20012;-80
2022/09/14 06:12:34;;;;;;;3.10;1.38;;;19.60;98.90;;;;;;6227346;23;20009;-80
2022/09/14 06:15:00;;;;;;;2.33;1.60;;;19.60;98.80;;;;;;6227176;23;20015;-80
2022/09/14 06:17:28;;;;;;;3.42;2.00;;;19.70;98.70;;;;;;6224934;23;20005;-80
2022/09/14 06:19:54;;;;;;;2.78;2.05;;;19.70;98.40;;;;;;6227877;23;20040;-80
2022/09/14 06:22:20;;;;;;;3.63;1.83;;;19.70;98.10;;;;;;6241280;22;19988;-81
2022/09/14 06:24:45;;;;;;;3.60;1.90;;;19.80;98.20;;;;;;6240033;23;19993;-80
2022/09/14 06:27:11;;;;;;;3.63;1.70;;;19.80;98.30;;;;;;6239258;23;20001;-80
2022/09/14 06:29:37;;;;;;;2.03;1.40;;;19.80;98.40;;;;;;6240363;22;20084;-80
2022/09/14 06:32:02;;;;;;;3.10;1.40;;;19.80;98.50;;;;;;6239152;23;20214;-79
2022/09/14 06:34:29;;;;;;;1.60;1.33;;;19.90;98.70;;;;;;6240399;23;20000;-80
2022/09/14 06:36:55;;;;;;;4.20;1.70;;;19.90;98.60;;;;;;6237324;22;20020;-81
2022/09/14 06:39:21;;;;;;;4.47;2.13;;;19.90;98.70;;;;;;6207284;23;20001;-80
2022/09/14 06:41:47;;;;;;;3.00;2.10;;;20.00;98.70;;;;;;6207974;23;20051;-79
2022/09/14 06:44:13;;;;;;;1.17;1.08;;;20.10;98.50;;;;;;6209533;23;19993;-80
2022/09/14 06:46:38;;;;;;;2.22;1.80;;;20.30;98.10;;;;;;6233178;22;20000;-80
2022/09/14 06:49:12;;;;;;;3.60;1.70;;;20.50;97.80;;;;;;6240635;22;20035;-81
2022/09/14 06:51:41;;;;;;;3.38;1.90;;;20.60;97.40;;;;;;6241174;22;19992;-79
2022/09/14 06:54:08;;;;;;;2.75;1.83;;;20.60;97.10;;;;;;6241043;22;20008;-80
2022/09/14 06:56:36;;;;;;;3.28;1.60;;;20.50;97.10;;;;;;6242108;22;20000;-80
2022/09/14 06:59:03;;;;;;;3.50;1.98;;;20.50;97.30;;;;;;6232911;22;20019;-81
2022/09/14 07:01:29;;;;;;;3.28;2.38;;;20.40;97.60;;;;;;6222193;23;20007;-81
2022/09/14 07:03:56;;;;;;;3.20;1.67;;;20.40;98.00;;;;;;6196938;23;20028;-81
2022/09/14 07:06:24;;;;;;;2.25;1.42;;;20.40;98.20;;;;;;6198739;23;20378;-81
2022/09/14 07:08:51;;;;;;;3.50;1.83;;;20.50;98.60;;;;;;6223766;23;20004;-81
2022/09/14 07:11:19;;;;;;;1.88;1.35;;;20.60;98.60;;;;;;6199907;23;20008;-81
2022/09/14 07:13:46;;;;;;;5.18;1.20;;;20.60;98.60;;;;;;6226067;23;20301;-81
2022/09/14 07:16:13;;;;;;;5.53;1.73;;;20.60;98.30;;;;;;6198818;23;20088;-81
2022/09/14 07:18:39;;;;;;;1.23;1.23;;;20.70;98.20;;;;;;6228205;23;20001;-81
2022/09/14 07:21:16;;;;;;;2.28;1.30;;;20.70;98.20;;;;;;6229928;23;20087;-81
2022/09/14 07:23:44;;;;;;;2.00;1.40;;;20.70;98.30;;;;;;6227804;23;20036;-82
2022/09/14 07:26:18;;;;;;;2.28;1.50;;;20.80;98.20;;;;;;6228373;23;20015;-82
2022/09/14 07:28:45;;;;;;;5.13;1.73;;;20.80;98.20;;;;;;6228226;23;20100;-80
2022/09/14 07:31:21;;;;;;;4.88;2.22;;;20.90;98.10;;;;;;6224148;23;20034;-80
2022/09/14 07:33:47;;;;;;;5.78;2.45;;;20.90;98.10;;;;;;6228038;23;20040;-80
2022/09/14 07:36:13;;;;;;;3.17;2.15;;;21.00;97.90;;;;;;6203383;23;20011;-81
2022/09/14 07:38:40;;;;;;;3.58;1.80;;;21.10;97.80;;;;;;6228370;23;20005;-81
2022/09/14 07:41:06;;;;;;;4.75;1.70;;;21.20;97.80;;;;;;6230607;23;20008;-81
2022/09/14 07:43:32;;;;;;;1.70;1.55;;;21.20;97.40;;;;;;6230255;23;19997;-81
2022/09/14 07:46:03;;;;;;;3.15;2.03;;;21.30;97.10;;;;;;6232565;23;20024;-81
2022/09/14 07:48:29;;;;;;;4.25;2.03;;;21.40;96.60;;;;;;6229541;23;20001;-81
2022/09/14 07:51:13;;;;;;;3.35;1.58;;;21.50;96.30;;;;;;6204166;23;20035;-82
2022/09/14 07:53:44;;;;;;;3.33;1.70;;;21.70;96.10;;;;;;6205093;23;20004;-81
2022/09/14 07:56:11;;;;;;;2.35;1.77;;;22.00;95.60;;;;;;6205140;23;20020;-81
2022/09/14 07:58:37;;;;;;;4.05;1.92;;;22.30;94.90;;;;;;6234471;23;20000;-81
2022/09/14 08:01:10;;;;;;;2.38;1.70;;;22.70;94.00;;;;;;6206662;23;20051;-81
2022/09/14 08:03:37;;;;;;;6.95;1.95;;;23.00;93.20;;;;;;6240486;22;20016;-81
2022/09/14 08:06:08;;;;;;;3.17;1.92;;;23.50;92.20;;;;;;6240668;22;20001;-81
2022/09/14 08:08:39;;;;;;;5.00;2.57;;;24.00;90.80;;;;;;6234470;23;20020;-81
2022/09/14 08:11:25;;;;;;;3.25;1.52;;;24.30;88.40;;;;;;6219895;22;20279;-86
2022/09/14 08:14:05;;;;;;;2.60;1.60;;;24.50;85.70;;;;;;6232393;22;20015;-85
2022/09/14 08:16:37;;;;;;;2.30;1.98;;;24.50;85.40;;;;;;6191961;23;20032;-85
2022/09/14 08:19:05;;;;;;;4.30;1.80;;;24.70;85.00;;;;;;6191611;23;20027;-86
2022/09/14 08:21:32;;;;;;;2.03;1.48;;;24.90;83.10;;;;;;6196562;23;20013;-86
2022/09/14 08:24:02;;;;;;;1.75;1.35;;;25.00;81.50;;;;;;6166276;23;20398;-86
2022/09/14 08:26:30;;;;;;;4.88;1.70;;;25.10;80.10;;;;;;6163671;23;20009;-87
2022/09/14 08:28:58;;;;;;;4.38;2.25;;;25.10;79.00;;;;;;6168781;23;20008;-85
2022/09/14 08:31:25;;;;;;;3.72;1.77;;;24.90;79.00;;;;;;6168765;23;20002;-85
2022/09/14 08:33:54;;;;;;;4.57;2.05;;;24.90;79.00;;;;;;6168093;23;20002;-85
2022/09/14 08:36:21;;;;;;;3.53;1.20;;;24.80;78.90;;;;;;6169646;23;20052;-86
2022/09/14 08:38:50;;;;;;;6.50;1.73;;;24.70;79.10;;;;;;6168584;23;20475;-85
2022/09/14 08:41:50;;;;;;;5.95;1.75;;;24.60;79.10;;;;;;6164339;23;20329;-85
2022/09/14 08:44:36;;;;;;;4.75;1.60;;;24.60;79.50;;;;;;6167838;23;20057;-84
2022/09/14 08:47:33;;;;;;;3.28;1.45;;;24.80;78.50;;;;;;6165487;23;20488;-85
2022/09/14 08:50:18;;;;;;;3.38;1.60;;;25.10;77.50;;;;;;6167620;23;20444;-86
2022/09/14 08:52:54;;;;;;;4.47;1.70;;;25.40;75.60;;;;;;6168741;23;20008;-86
2022/09/14 08:55:40;;;;;;;5.25;1.73;;;25.60;73.50;;;;;;6163674;23;20010;-85
2022/09/14 08:58:28;;;;;;;6.97;1.63;;;25.70;72.90;;;;;;6170665;23;20033;-85
2022/09/14 09:01:27;;;;;;;9.02;1.92;;;25.90;71.60;;;;;;6174577;23;19999;-89
2022/09/14 09:04:37;;;;;;;6.13;1.40;;;25.90;71.20;;;;;;6174425;23;20002;-86
2022/09/14 09:07:37;;;;;;;4.18;1.42;;;26.00;71.00;;;;;;6166382;23;20057;-86
2022/09/14 09:10:05;;;;;;;3.83;1.90;;;26.10;70.30;;;;;;6165938;23;20305;-86
2022/09/14 09:12:53;;;;;;;3.00;1.30;;;26.10;70.20;;;;;;6132031;23;1415391;-86
2022/09/14 09:16:06;;;;;;;3.40;1.55;;;26.10;69.90;;;;;;6196520;23;20259;-87
2022/09/14 09:18:52;;;;;;;4.25;1.42;;;26.20;69.20;;;;;;6142079;23;20024;-85
2022/09/14 09:21:23;;;;;;;5.40;1.95;;;26.40;69.20;;;;;;6182390;23;20009;-85
2022/09/14 09:24:04;;;;;;;1.73;1.13;;;26.60;68.00;;;;;;6211208;23;20005;-84
2022/09/14 09:26:31;;;;;;;2.92;1.83;;;26.70;67.20;;;;;;6186518;23;20044;-85
2022/09/14 09:29:00;;;;;;;4.30;1.77;;;26.70;66.70;;;;;;6187908;23;19993;-84
2022/09/14 09:32:13;;;;;;;7.05;1.40;;;26.80;66.50;;;;;;6213265;23;19989;-86
2022/09/14 09:34:38;;;;;;;2.53;1.40;;;27.00;66.30;;;;;;6104723;23;20010;-86
2022/09/14 09:37:17;;;;;;;5.00;1.70;;;26.90;66.30;;;;;;6212089;23;20009;-87
2022/09/14 09:39:43;;;;;;;5.60;2.30;;;27.10;66.20;;;;;;6201436;23;19997;-85
2022/09/14 09:42:27;;;;;;;6.97;1.90;;;27.40;65.20;;;;;;6212920;23;20065;-86
2022/09/14 09:45:10;;;;;;;4.80;1.90;;;27.60;64.50;;;;;;6212670;23;20005;-86
2022/09/14 09:47:42;;;;;;;4.20;1.85;;;27.60;64.30;;;;;;6212612;23;19985;-85
2022/09/14 09:50:14;;;;;;;;;;;27.50;64.10;;;;;;6207987;23;20009;-87
2022/09/14 09:52:51;;;;;;;3.92;1.88;;;27.30;64.50;;;;;;6194518;23;19947;-86
2022/09/14 09:55:22;;;;;;;6.30;1.88;;;27.00;65.30;;;;;;6194410;23;20051;-86
2022/09/14 09:57:53;;;;;;;3.30;1.58;;;26.70;65.40;;;;;;6193314;23;20060;-86
2022/09/14 10:00:28;;;;;;;8.37;2.40;;;26.60;66.60;;;;;;6203555;23;20001;-86
2022/09/14 10:02:56;;;;;;;3.95;1.73;;;26.60;66.90;;;;;;6207991;23;20013;-86
2022/09/14 10:05:31;;;;;;;2.78;1.55;;;26.70;66.60;;;;;;6168606;23;20009;-86
2022/09/14 10:08:02;;;;;;;5.65;2.05;;;26.90;66.10;;;;;;6197043;23;20004;-86
2022/09/14 10:10:34;;;;;;;4.75;1.50;;;26.80;65.60;;;;;;6200557;23;19997;-85
2022/09/14 10:13:03;;;;;;;9.55;3.22;;;26.70;65.50;;;;;;6195613;23;20012;-85
2022/09/14 10:15:30;;;;;;;6.47;2.22;;;26.60;65.80;;;;;;6168845;23;20363;-86
2022/09/14 10:17:59;;;;;;;4.70;2.05;;;26.60;66.00;;;;;;6198130;23;20071;-86
2022/09/14 10:20:28;;;;;;;5.97;2.20;;;26.50;65.70;;;;;;6195512;23;20020;-87
2022/09/14 10:22:54;;;;;;;6.10;1.95;;;26.20;66.40;;;;;;6193922;23;20005;-87
2022/09/14 10:25:24;;;;;;;5.28;1.65;;;26.10;67.00;;;;;;6167697;23;20013;-85
2022/09/14 10:28:22;;;;;;;2.90;1.57;;;25.90;67.50;;;;;;6194500;23;20008;-86
2022/09/14 10:31:01;;;;;;;5.22;2.03;;;25.90;68.40;;;;;;6192988;23;20001;-86
2022/09/14 10:33:29;;;;;;;6.18;1.95;;;26.30;67.40;;;;;;6193905;23;20004;-86
2022/09/14 10:36:30;;;;;;;5.53;1.80;;;26.70;66.10;;;;;;6193331;23;19993;-85
2022/09/14 10:39:07;;;;;;;3.90;1.48;;;26.80;65.80;;;;;;6079742;23;20002;-85
2022/09/14 10:41:44;;;;;;;3.42;1.75;;;27.00;66.20;;;;;;6193876;23;20055;-85
2022/09/14 10:44:42;;;;;;;3.50;2.00;;;27.10;65.60;;;;;;6183857;23;20015;-85
2022/09/14 10:47:30;;;;;;;3.55;1.80;;;27.20;65.50;;;;;;6183927;23;20040;-87
2022/09/14 10:50:04;;;;;;;8.25;2.25;;;27.20;65.50;;;;;;6167245;23;20061;-85
2022/09/14 10:52:35;;;;;;;3.97;1.77;;;27.10;65.50;;;;;;6192742;23;20080;-86
2022/09/14 10:55:30;;;;;;;9.75;2.90;;;26.90;65.70;;;;;;6167065;23;20680;-86
2022/09/14 10:58:30;;;;;;;10.45;1.95;;;26.70;65.10;;;;;;6166167;23;20029;-85
2022/09/14 11:01:09;;;;;;;4.80;2.03;;;26.60;65.50;;;;;;6192326;23;20016;-86
2022/09/14 11:04:16;;;;;;;7.55;2.40;;;26.30;66.30;;;;;;6164933;23;20019;-86
2022/09/14 11:06:44;;;;;;;6.03;2.08;;;26.30;66.80;;;;;;6176809;23;20012;-84
2022/09/14 11:09:32;;;;;;;3.03;1.40;;;26.50;66.70;;;;;;6165030;23;20001;-85
2022/09/14 11:12:14;;;;;;;4.40;1.83;;;27.10;65.30;;;;;;6191818;23;20013;-85
2022/09/14 11:15:01;;;;;;;7.90;2.30;;;27.50;63.70;;;;;;6199910;23;20033;-84
2022/09/14 11:18:04;;;;;;;5.30;1.80;;;27.80;63.50;;;;;;6190193;23;20333;-85
2022/09/14 11:20:55;;;;;;;6.75;2.42;;;28.10;62.20;;;;;;6189027;23;20068;-84
2022/09/14 11:23:48;;;;;;;4.57;1.70;;;28.10;61.70;;;;;;6192432;23;20001;-86
2022/09/14 11:26:24;;;;;;;5.88;1.98;;;28.20;61.60;;;;;;6185029;23;20006;-86
2022/09/14 11:29:11;;;;;;;7.60;1.95;;;28.40;61.50;;;;;;6190980;23;20008;-85
2022/09/14 11:32:00;;;;;;;6.65;2.08;;;28.50;61.20;;;;;;6165136;23;20019;-85
2022/09/14 11:34:44;;;;;;;5.38;1.70;;;28.50;60.80;;;;;;6163587;23;20040;-88
2022/09/14 11:37:17;;;;;;;6.32;2.00;;;28.40;60.60;;;;;;6164916;23;20436;-87
2022/09/14 11:39:49;;;;;;;7.82;1.67;;;28.30;61.00;;;;;;6190052;23;19997;-86
2022/09/14 11:42:24;;;;;;;6.93;2.10;;;28.10;60.90;;;;;;6191824;23;20316;-84
2022/09/14 11:44:58;;;;;;;4.53;1.75;;;28.00;61.90;;;;;;6164385;23;20176;-83
2022/09/14 11:47:24;;;;;;;6.45;1.50;;;28.00;61.10;;;;;;6170742;23;20009;-84
2022/09/14 11:49:56;;;;;;;4.97;1.83;;;28.00;60.50;;;;;;6197668;23;20408;-84
2022/09/14 11:52:24;;;;;;;7.38;1.73;;;27.90;61.70;;;;;;6189424;23;20384;-85
2022/09/14 11:54:51;;;;;;;3.90;1.75;;;28.00;61.40;;;;;;6190730;23;20005;-85
2022/09/14 11:57:26;;;;;;;6.05;1.95;;;28.00;61.40;;;;;;6199275;23;20044;-84
2022/09/14 11:59:54;;;;;;;5.70;2.10;;;28.00;61.10;;;;;;6172537;23;20011;-85
2022/09/14 12:02:26;;;;;;;10.55;1.90;;;28.00;61.70;;;;;;6194558;23;20009;-85
2022/09/14 12:05:04;;;;;;;5.03;2.03;;;28.00;61.30;;;;;;6166679;23;20009;-84
2022/09/14 12:07:42;;;;;;;5.63;1.95;;;28.10;60.70;;;;;;6195597;23;20005;-84
2022/09/14 12:10:14;;;;;;;5.53;1.88;;;28.00;61.00;;;;;;6165327;23;20016;-85
2022/09/14 12:12:53;;;;;;;5.75;2.33;;;27.90;61.50;;;;;;6198652;23;20061;-85
2022/09/14 12:15:22;;;;;;;5.55;1.80;;;27.90;61.30;;;;;;6164500;23;20001;-84
2022/09/14 12:17:49;;;;;;;9.02;2.17;;;27.90;61.40;;;;;;6192135;23;20027;-85
2022/09/14 12:20:37;;;;;;;12.35;1.98;;;28.00;61.40;;;;;;6196222;23;20413;-84
2022/09/14 12:23:38;;;;;;;3.17;1.60;;;27.90;61.40;;;;;;6164355;23;20424;-84
2022/09/14 12:26:09;;;;;;;5.60;1.63;;;27.80;62.00;;;;;;6190487;23;20024;-84
2022/09/14 12:28:36;;;;;;;;;;;27.80;61.80;;;;;;6190911;23;20001;-84
2022/09/14 12:31:01;;;;;;;4.78;1.90;;;28.00;61.50;;;;;;6191353;23;19900;-85
2022/09/14 12:33:33;;;;;;;4.07;2.13;;;28.00;61.00;;;;;;6164833;23;20101;-85
2022/09/14 12:35:59;;;;;;;3.75;1.95;;;28.10;61.00;;;;;;6199226;23;20020;-83
2022/09/14 12:38:28;;;;;;;2.70;1.75;;;28.20;60.40;;;;;;6180974;23;20001;-83
2022/09/14 12:41:21;;;;;;;4.07;1.52;;;28.20;59.60;;;;;;6178605;23;20005;-83
2022/09/14 12:43:50;;;;;;;3.75;1.80;;;28.30;59.60;;;;;;6177522;23;20063;-84
2022/09/14 12:46:18;;;;;;;2.85;1.83;;;28.40;59.80;;;;;;6193733;23;19997;-87
2022/09/14 12:48:47;;;;;;;4.22;1.67;;;28.40;59.90;;;;;;6192090;23;20005;-83
2022/09/14 12:51:29;;;;;;;4.28;1.58;;;28.50;59.40;;;;;;6190057;23;20076;-84
2022/09/14 12:53:57;;;;;;;3.42;1.90;;;28.60;59.40;;;;;;6190462;23;19993;-86
2022/09/14 12:56:39;;;;;;;6.18;1.65;;;28.50;59.50;;;;;;6190428;23;20387;-85
2022/09/14 12:59:10;;;;;;;5.03;1.83;;;28.30;59.90;;;;;;6189782;23;20083;-86
2022/09/14 13:01:55;;;;;;;5.40;1.90;;;28.00;60.50;;;;;;6190315;23;20039;-85
2022/09/14 13:04:32;;;;;;;6.05;1.42;;;27.80;60.80;;;;;;6165798;23;20028;-84
2022/09/14 13:07:00;;;;;;;7.45;1.83;;;27.60;61.30;;;;;;6192443;23;20387;-85
2022/09/14 13:09:28;;;;;;;3.90;1.63;;;27.40;61.90;;;;;;6165416;23;20005;-84
2022/09/14 13:11:59;;;;;;;3.20;1.55;;;27.30;62.80;;;;;;6192768;23;20475;-83
2022/09/14 13:14:29;;;;;;;3.47;1.70;;;27.00;63.30;;;;;;6167114;23;20005;-83
2022/09/14 13:16:57;;;;;;;3.30;1.65;;;26.90;63.40;;;;;;6200840;23;19985;-83